Terminal Aerodrome Forecast
Issued by NWS Portland, ME

Home | Current Version | Previous Version | Text Only | Print | Product List | Glossary On
Versions: 1 2 3 4 5 6 7 8 9 10 11 12 13 14 15 16 17 18 19 20 21 22 23 24 25
872
FTUS41 KGYX 260845 AAA
TAFCON
TAF AMD
KCON 260845Z 2609/2706 00000KT 6SM BR SKC
     FM261200 02005KT P6SM FEW050 SCT100 BKN250
     FM262000 06005KT P6SM BKN025 OVC050=

USA.gov is the U.S. government's official web portal to all federal, state and local government web resources and services.